Time;durP1;ratioP1;P1;durP2;ratioP2;P2;SDS_P1;SDS_P2;PMS_P1;PMS_P2;Temp;Humidity;BMP_temperature;BMP_pressure;BME280_temperature;BME280_humidity;BME280_pressure;Samples;Min_cycle;Max_cycle;Signal;HPM_P1;HPM_P2
2022/03/14 00:04:13;;;;;;;0.98;0.70;;;18.10;29.80;20.60;94129.00;;;;10315459;28;45631;-58
2022/03/14 00:09:14;;;;;;;1.48;0.82;;;18.20;29.90;20.60;94144.00;;;;10329824;28;47278;-59
2022/03/14 00:14:14;;;;;;;0.82;0.70;;;18.10;29.90;20.60;94164.00;;;;10313005;28;48226;-61
2022/03/14 00:19:15;;;;;;;1.10;0.77;;;18.10;29.90;20.60;94163.00;;;;10313409;28;46342;-61
2022/03/14 00:24:16;;;;;;;0.85;0.70;;;18.10;29.90;20.60;94149.00;;;;10314607;28;46299;-60
2022/03/14 00:29:18;;;;;;;1.00;0.70;;;18.10;29.90;20.60;94181.00;;;;10345331;28;45210;-60
2022/03/14 00:34:19;;;;;;;0.90;0.60;;;18.10;29.90;20.60;94192.00;;;;10344737;28;45221;-61
2022/03/14 00:39:20;;;;;;;0.80;0.52;;;18.10;29.90;20.60;94197.00;;;;10311954;28;47311;-61
2022/03/14 00:44:21;;;;;;;0.93;0.60;;;18.10;29.90;20.60;94192.00;;;;10345500;28;45292;-60
2022/03/14 00:49:22;;;;;;;0.70;0.60;;;18.10;29.90;20.60;94210.00;;;;10312509;28;45109;-60
2022/03/14 00:54:22;;;;;;;0.70;0.60;;;18.00;29.90;20.50;94231.00;;;;10345071;28;46714;-61
2022/03/14 00:59:24;;;;;;;1.10;0.50;;;18.00;29.90;20.50;94260.00;;;;10312813;28;45276;-59
2022/03/14 01:04:25;;;;;;;1.00;0.55;;;18.00;29.90;20.50;94262.00;;;;10344170;28;45481;-59
2022/03/14 01:09:26;;;;;;;0.50;0.35;;;18.00;29.90;20.50;94287.00;;;;10343535;28;46142;-61
2022/03/14 01:14:27;;;;;;;0.52;0.40;;;18.00;30.00;20.50;94277.00;;;;10327353;28;47289;-60
2022/03/14 01:19:28;;;;;;;0.70;0.35;;;18.00;29.90;20.50;94277.00;;;;10326763;28;47242;-60
2022/03/14 01:24:31;;;;;;;0.60;0.40;;;18.00;30.00;20.50;94292.00;;;;10312603;28;45479;-61
2022/03/14 01:29:34;;;;;;;0.90;0.40;;;18.00;30.00;20.50;94294.00;;;;10326517;28;48217;-59
2022/03/14 01:34:34;;;;;;;0.57;0.30;;;18.00;30.00;20.50;94307.00;;;;10343317;28;45317;-61
2022/03/14 01:39:35;;;;;;;0.60;0.30;;;18.00;30.00;20.50;94299.00;;;;10310430;28;47939;-61
2022/03/14 01:44:36;;;;;;;0.40;0.40;;;17.90;30.00;20.50;94317.00;;;;10312222;28;45449;-60
2022/03/14 01:49:36;;;;;;;0.30;0.30;;;18.00;30.00;20.50;94299.00;;;;10309984;28;47046;-59
2022/03/14 01:54:47;;;;;;;0.10;0.10;;;17.90;30.00;20.50;94310.00;;;;10343633;28;45251;-61
2022/03/14 01:59:48;;;;;;;0.40;0.30;;;17.90;30.00;20.40;94315.00;;;;10307869;28;45300;-61
2022/03/14 02:04:49;;;;;;;0.17;0.13;;;17.90;30.00;20.40;94321.00;;;;10307836;28;45431;-60
2022/03/14 02:09:49;;;;;;;0.30;0.20;;;17.90;30.00;20.40;94342.00;;;;10310652;28;46480;-61
2022/03/14 02:14:50;;;;;;;0.73;0.20;;;17.90;30.00;20.40;94333.00;;;;10342860;28;46512;-59
2022/03/14 02:19:52;;;;;;;0.30;0.20;;;17.90;30.00;20.40;94335.00;;;;10342093;28;45328;-61
2022/03/14 02:24:52;;;;;;;0.20;0.10;;;17.90;30.70;20.40;94347.00;;;;10345530;28;45367;-60
2022/03/14 02:29:53;;;;;;;0.65;0.30;;;17.90;30.00;20.40;94331.00;;;;10317245;28;45217;-61
2022/03/14 02:34:54;;;;;;;0.20;0.10;;;17.90;30.00;20.40;94353.00;;;;10349401;28;46168;-59
2022/03/14 02:39:54;;;;;;;0.10;0.10;;;17.90;30.00;20.40;94341.00;;;;10348294;28;46240;-61
2022/03/14 02:44:55;;;;;;;0.20;0.20;;;17.90;30.00;20.40;94350.00;;;;10332798;28;47566;-61
2022/03/14 02:49:56;;;;;;;0.10;0.10;;;17.90;30.00;20.40;94355.00;;;;10331423;28;47203;-60
2022/03/14 02:54:57;;;;;;;0.25;0.20;;;17.80;30.00;20.40;94377.00;;;;10317289;28;45474;-59
2022/03/14 02:59:58;;;;;;;0.10;0.10;;;17.90;30.00;20.40;94375.00;;;;10348003;28;45314;-61
2022/03/14 03:05:00;;;;;;;0.13;0.10;;;17.80;30.00;20.40;94367.00;;;;10329538;28;48083;-60
2022/03/14 03:10:03;;;;;;;0.20;0.10;;;17.80;30.00;20.40;94350.00;;;;10326094;28;47041;-61
2022/03/14 03:15:05;;;;;;;0.05;0.05;;;17.80;30.00;20.40;94380.00;;;;10347017;28;45455;-61
2022/03/14 03:20:06;;;;;;;0.10;0.10;;;17.80;30.00;20.30;94392.00;;;;10315090;28;46924;-59
2022/03/14 03:25:08;;;;;;;0.00;0.00;;;17.80;30.00;20.30;94391.00;;;;10347206;28;45457;-62
2022/03/14 03:30:09;;;;;;;0.20;0.10;;;17.80;30.00;20.30;94392.00;;;;10315048;28;45259;-60
2022/03/14 03:35:10;;;;;;;0.10;0.10;;;17.80;30.00;20.30;94417.00;;;;10347148;28;47111;-61
2022/03/14 03:40:11;;;;;;;0.00;0.00;;;17.80;30.00;20.30;94429.00;;;;10347163;28;46554;-60
2022/03/14 03:45:13;;;;;;;0.10;0.10;;;17.80;30.60;20.30;94445.00;;;;10330418;28;47100;-59
2022/03/14 03:50:16;;;;;;;0.10;0.10;;;17.80;30.00;20.30;94461.00;;;;10313421;28;47161;-60
2022/03/14 03:55:16;;;;;;;0.00;0.00;;;17.80;30.00;20.30;94472.00;;;;10346432;28;46134;-59
2022/03/14 04:00:19;;;;;;;0.00;0.00;;;17.80;30.00;20.30;94479.00;;;;10314364;28;45306;-59
2022/03/14 04:05:21;;;;;;;0.00;0.00;;;17.80;30.00;20.30;94477.00;;;;10313252;28;48003;-60
2022/03/14 04:10:21;;;;;;;0.00;0.00;;;17.80;30.00;20.30;94483.00;;;;10345611;28;45279;-60
2022/03/14 04:15:23;;;;;;;0.10;0.10;;;17.80;30.00;20.30;94497.00;;;;10314340;28;45521;-60
2022/03/14 04:20:24;;;;;;;0.00;0.00;;;17.80;29.90;20.30;94500.00;;;;10344806;28;45215;-60
2022/03/14 04:25:25;;;;;;;0.17;0.10;;;17.80;29.90;20.30;94509.00;;;;10345581;28;46228;-60
2022/03/14 04:30:26;;;;;;;0.10;0.10;;;17.80;29.90;20.30;94504.00;;;;10314062;28;45454;-59
2022/03/14 04:35:26;;;;;;;0.45;0.20;;;17.80;29.90;20.30;94517.00;;;;10345172;28;45142;-60
2022/03/14 04:40:27;;;;;;;0.10;0.10;;;17.80;29.90;20.30;94518.00;;;;10344925;28;46747;-60
2022/03/14 04:45:28;;;;;;;0.25;0.08;;;17.80;29.90;20.30;94517.00;;;;10344439;28;45536;-60
2022/03/14 04:50:29;;;;;;;0.13;0.00;;;17.80;29.90;20.30;94533.00;;;;10327731;28;46997;-61
2022/03/14 04:55:29;;;;;;;0.10;0.00;;;17.80;29.90;20.30;94559.00;;;;10344492;28;45371;-60
2022/03/14 05:00:31;;;;;;;0.63;0.10;;;17.80;30.40;20.30;94559.00;;;;10312692;28;45447;-60
2022/03/14 05:05:32;;;;;;;0.65;0.10;;;17.80;29.80;20.30;94569.00;;;;10344311;28;45486;-60
2022/03/14 05:10:33;;;;;;;0.70;0.22;;;17.80;29.80;20.30;94577.00;;;;10344476;28;46506;-61
2022/03/14 05:15:33;;;;;;;1.08;0.20;;;17.80;29.80;20.30;94571.00;;;;10344199;28;46560;-59
2022/03/14 05:20:36;;;;;;;0.20;0.20;;;17.80;29.80;20.40;94586.00;;;;10311672;28;46187;-61
2022/03/14 05:25:37;;;;;;;0.17;0.10;;;17.90;29.70;20.40;94591.00;;;;10312117;28;45371;-60
2022/03/14 05:30:37;;;;;;;0.45;0.10;;;17.90;29.70;20.40;94605.00;;;;10311821;28;45216;-59
2022/03/14 05:35:38;;;;;;;1.73;0.25;;;17.90;29.70;20.50;94610.00;;;;10343767;28;45441;-60
2022/03/14 05:40:39;;;;;;;0.82;0.20;;;18.00;29.70;20.50;94611.00;;;;10343905;28;46164;-61
2022/03/14 05:45:39;;;;;;;0.65;0.20;;;18.00;29.60;20.50;94602.00;;;;10326892;28;47424;-61
2022/03/14 05:50:40;;;;;;;0.75;0.20;;;18.00;29.60;20.50;94612.00;;;;10343003;28;46492;-59
2022/03/14 05:55:41;;;;;;;0.52;0.22;;;18.00;30.00;20.50;94612.00;;;;10311437;28;45316;-60
2022/03/14 06:00:41;;;;;;;1.08;0.50;;;18.00;29.50;20.50;94628.00;;;;10347714;28;45323;-60
2022/03/14 06:05:42;;;;;;;0.47;0.28;;;18.00;29.50;20.50;94626.00;;;;10318416;28;45596;-60
2022/03/14 06:10:45;;;;;;;0.60;0.32;;;18.10;29.50;20.50;94636.00;;;;10318520;28;46115;-62
2022/03/14 06:15:47;;;;;;;0.65;0.20;;;18.10;29.50;20.60;94637.00;;;;10332675;28;47375;-60
2022/03/14 06:20:47;;;;;;;1.88;0.50;;;18.10;29.50;20.60;94637.00;;;;10317519;28;45422;-62
2022/03/14 06:25:49;;;;;;;0.70;0.38;;;18.10;29.50;20.60;94655.00;;;;10349146;28;45608;-62
2022/03/14 06:30:50;;;;;;;0.80;0.30;;;18.10;29.40;20.60;94650.00;;;;10348953;28;45403;-62
2022/03/14 06:35:51;;;;;;;0.73;0.25;;;18.10;29.40;20.60;94659.00;;;;10349190;28;45626;-61
2022/03/14 06:40:56;;;;;;;1.10;0.40;;;18.10;29.40;20.60;94662.00;;;;10315711;28;47191;-61
2022/03/14 06:45:57;;;;;;;1.75;0.50;;;18.10;29.40;20.60;94669.00;;;;10347696;28;46988;-61
2022/03/14 06:50:58;;;;;;;1.90;0.60;;;18.10;29.40;20.60;94691.00;;;;10331634;28;47885;-62
2022/03/14 06:55:59;;;;;;;2.95;0.55;;;18.10;29.40;20.60;94684.00;;;;10348344;28;45442;-61
2022/03/14 07:01:00;;;;;;;1.13;0.38;;;18.10;29.40;20.60;94703.00;;;;10327664;28;46447;-62
2022/03/14 07:06:02;;;;;;;1.35;0.50;;;18.10;29.30;20.60;94700.00;;;;10322460;28;45300;-62
2022/03/14 07:11:02;;;;;;;3.17;0.75;;;18.10;29.30;20.60;94723.00;;;;10356691;28;45253;-61
2022/03/14 07:16:03;;;;;;;5.22;1.80;;;18.10;29.30;20.70;94732.00;;;;10357049;28;45213;-62
2022/03/14 07:21:04;;;;;;;4.82;2.00;;;18.20;29.40;20.60;94744.00;;;;10370962;28;45336;-62
2022/03/14 07:26:05;;;;;;;5.22;1.60;;;18.20;29.40;19.60;94744.00;;;;10351632;28;45380;-62
2022/03/14 07:31:05;;;;;;;5.03;1.40;;;16.90;31.40;20.10;94747.00;;;;10358030;28;45357;-65
2022/03/14 07:36:06;;;;;;;7.50;1.33;;;17.50;30.80;20.40;94751.00;;;;10335369;28;45314;-61
2022/03/14 07:41:08;;;;;;;6.07;1.30;;;17.80;30.20;20.50;94750.00;;;;10334610;28;45549;-65
2022/03/14 07:46:09;;;;;;;4.03;1.02;;;18.00;30.00;20.60;94762.00;;;;10348852;28;45252;-63
2022/03/14 07:51:09;;;;;;;4.70;1.40;;;18.10;30.40;20.70;94767.00;;;;10356581;28;46602;-61
2022/03/14 07:56:11;;;;;;;4.60;1.27;;;18.20;31.20;20.70;94780.00;;;;10351624;28;45633;-66
2022/03/14 08:01:11;;;;;;;9.77;1.10;;;18.30;30.50;20.70;94780.00;;;;10356953;28;45429;-66
2022/03/14 08:06:17;;;;;;;4.53;1.25;;;18.30;30.50;20.70;94776.00;;;;10348391;28;47376;-64
2022/03/14 08:11:18;;;;;;;3.30;1.20;;;18.30;30.40;20.80;94795.00;;;;10331204;28;47420;-65
2022/03/14 08:16:18;;;;;;;5.15;1.50;;;18.40;30.20;20.80;94803.00;;;;10330756;28;47147;-61
2022/03/14 08:21:19;;;;;;;9.23;0.98;;;18.40;30.20;20.80;94816.00;;;;10330026;28;47194;-65
2022/03/14 08:26:21;;;;;;;5.25;1.00;;;18.40;30.30;20.80;94828.00;;;;10331860;28;46904;-64
2022/03/14 08:31:22;;;;;;;2.78;1.00;;;18.40;30.20;20.80;94816.00;;;;10328192;28;47969;-62
2022/03/14 08:36:23;;;;;;;2.47;0.60;;;18.40;30.20;20.80;94823.00;;;;10312871;28;45524;-63
2022/03/14 08:41:24;;;;;;;2.53;0.70;;;18.30;30.00;20.70;94818.00;;;;10328245;28;45163;-63
2022/03/14 08:46:24;;;;;;;4.60;0.70;;;18.30;30.00;20.70;94829.00;;;;10327793;28;46508;-63
2022/03/14 08:51:25;;;;;;;2.20;0.60;;;18.30;30.10;20.70;94829.00;;;;10311017;28;47089;-62
2022/03/14 08:56:26;;;;;;;1.95;0.70;;;18.30;30.10;20.70;94817.00;;;;10328204;28;45298;-69
2022/03/14 09:01:27;;;;;;;3.03;0.75;;;18.20;30.10;20.80;94825.00;;;;10327774;28;45617;-67
2022/03/14 09:06:28;;;;;;;1.77;0.50;;;18.30;30.30;20.80;94821.00;;;;10327964;28;45405;-64
2022/03/14 09:11:29;;;;;;;2.45;0.65;;;18.30;30.30;20.70;94836.00;;;;10327008;28;45187;-64
2022/03/14 09:16:30;;;;;;;2.47;0.55;;;18.30;30.30;20.80;94831.00;;;;10310723;28;47017;-62
2022/03/14 09:21:32;;;;;;;3.30;0.60;;;18.30;30.40;20.80;94834.00;;;;10326933;28;46402;-62
2022/03/14 09:26:35;;;;;;;2.03;0.60;;;18.30;30.40;20.80;94846.00;;;;10311978;28;45417;-61
2022/03/14 09:31:35;;;;;;;2.63;0.80;;;18.30;30.20;20.80;94855.00;;;;10311761;28;45102;-61
2022/03/14 09:36:36;;;;;;;3.30;0.80;;;18.40;30.10;20.80;94857.00;;;;10318568;28;45397;-62
2022/03/14 09:41:41;;;;;;;2.35;0.70;;;18.40;30.00;20.80;94860.00;;;;10333971;28;46510;-62
2022/03/14 09:46:48;;;;;;;2.25;0.50;;;18.40;30.10;20.90;94852.00;;;;10333710;28;45266;-61
2022/03/14 09:51:50;;;;;;;1.75;0.68;;;18.40;30.00;20.90;94864.00;;;;10317156;28;47311;-62
2022/03/14 09:56:51;;;;;;;1.73;0.52;;;18.40;30.00;20.90;94862.00;;;;10333384;28;45200;-62
2022/03/14 10:01:52;;;;;;;1.88;0.50;;;18.40;30.00;20.90;94869.00;;;;10316416;28;46980;-62
2022/03/14 10:06:53;;;;;;;0.57;0.30;;;18.40;30.00;20.90;94870.00;;;;10333065;28;45236;-61
2022/03/14 10:11:55;;;;;;;2.13;0.30;;;18.40;30.00;20.90;94870.00;;;;10314992;28;46937;-60
2022/03/14 10:16:56;;;;;;;0.82;0.43;;;18.40;30.00;20.90;94874.00;;;;10317566;28;45494;-62
2022/03/14 10:22:15;;;;;;;1.40;0.50;;;18.40;30.00;20.90;94880.00;;;;10318138;28;45352;-59
2022/03/14 10:27:21;;;;;;;2.55;0.70;;;18.40;30.10;20.80;94874.00;;;;10317277;28;46354;-59
2022/03/14 10:32:30;;;;;;;0.67;0.30;;;18.40;30.10;20.90;94877.00;;;;10315366;28;46370;-59
2022/03/14 10:37:34;;;;;;;3.50;0.40;;;18.40;30.10;20.90;94877.00;;;;10317692;28;45683;-62
2022/03/14 10:42:43;;;;;;;1.10;0.40;;;18.40;30.00;20.90;94868.00;;;;10317106;28;45320;-60
2022/03/14 10:47:57;;;;;;;1.05;0.40;;;18.40;30.00;20.90;94872.00;;;;10315482;28;45345;-59
2022/03/14 10:53:10;;;;;;;0.93;0.32;;;18.40;30.00;20.90;94878.00;;;;10316782;28;45107;-61
2022/03/14 10:58:21;;;;;;;1.75;0.50;;;18.40;30.00;20.90;94874.00;;;;10317026;28;45209;-58
2022/03/14 11:03:27;;;;;;;1.25;0.40;;;18.50;30.10;20.90;94875.00;;;;10316405;28;47949;-59
2022/03/14 11:08:32;;;;;;;1.63;0.30;;;18.40;30.10;20.90;94858.00;;;;10314912;28;45481;-59
2022/03/14 11:13:51;;;;;;;0.60;0.30;;;18.50;30.70;20.90;94859.00;;;;10316048;28;45154;-59
2022/03/14 11:18:53;;;;;;;0.88;0.25;;;18.50;30.00;21.00;94849.00;;;;10314361;28;45552;-62
2022/03/14 11:23:55;;;;;;;1.95;0.30;;;18.50;30.00;21.00;94841.00;;;;10314686;28;45622;-59
2022/03/14 11:28:59;;;;;;;0.95;0.32;;;18.50;30.00;21.00;94857.00;;;;10313813;28;46291;-61
2022/03/14 11:33:59;;;;;;;0.63;0.20;;;18.50;30.00;21.00;94850.00;;;;10314287;28;46239;-60
2022/03/14 11:39:00;;;;;;;1.85;0.43;;;18.50;30.00;21.00;94843.00;;;;10313667;28;46145;-59
2022/03/14 11:44:02;;;;;;;0.65;0.30;;;18.60;29.90;21.00;94832.00;;;;10314897;28;46422;-59
2022/03/14 11:49:14;;;;;;;1.95;0.30;;;18.60;29.90;21.10;94837.00;;;;10314042;28;46543;-59
2022/03/14 11:54:15;;;;;;;2.38;0.38;;;18.60;29.90;21.10;94852.00;;;;10314787;28;45202;-59
2022/03/14 11:59:29;;;;;;;0.90;0.35;;;18.60;29.80;21.10;94836.00;;;;10312696;28;45222;-60
2022/03/14 12:04:36;;;;;;;1.35;0.47;;;18.60;29.90;21.10;94840.00;;;;10314232;28;45354;-59
2022/03/14 12:09:38;;;;;;;1.98;0.45;;;18.60;29.80;21.10;94824.00;;;;10313380;28;45332;-61
2022/03/14 12:14:46;;;;;;;1.48;0.40;;;18.60;29.70;21.00;94822.00;;;;10314383;28;45490;-60
2022/03/14 12:19:52;;;;;;;1.13;0.30;;;18.60;29.70;21.00;94831.00;;;;10311515;28;46719;-59
2022/03/14 12:24:54;;;;;;;1.00;0.27;;;18.60;29.50;21.10;94815.00;;;;10294219;28;46509;-61
2022/03/14 12:29:57;;;;;;;1.15;0.30;;;18.60;29.40;21.00;94792.00;;;;10321806;28;46572;-61
2022/03/14 12:35:10;;;;;;;2.50;0.32;;;18.60;29.30;21.00;94804.00;;;;10311749;28;47192;-61
2022/03/14 12:40:21;;;;;;;0.82;0.30;;;18.60;29.00;21.00;94792.00;;;;10302596;28;46280;-59
2022/03/14 12:45:31;;;;;;;0.50;0.30;;;18.60;29.10;21.00;94795.00;;;;10280626;28;45554;-62
2022/03/14 12:50:50;;;;;;;0.88;0.20;;;18.60;29.00;21.10;94797.00;;;;10271284;28;45352;-60
2022/03/14 12:55:51;;;;;;;1.30;0.20;;;18.60;28.90;21.00;94780.00;;;;10272087;28;45352;-61
2022/03/14 13:00:55;;;;;;;0.77;0.20;;;18.60;28.90;21.00;94784.00;;;;10292654;28;45524;-60
2022/03/14 13:05:56;;;;;;;1.08;0.30;;;18.60;28.50;20.90;94786.00;;;;10338527;28;45216;-61
2022/03/14 13:11:00;;;;;;;0.60;0.28;;;18.50;28.30;21.00;94774.00;;;;10311758;28;45161;-61
2022/03/14 13:16:17;;;;;;;1.02;0.30;;;18.50;28.30;21.00;94795.00;;;;10294789;28;47217;-60
2022/03/14 13:21:26;;;;;;;;;;;18.50;28.60;21.00;94794.00;;;;10343939;28;45510;-61
2022/03/14 13:26:31;;;;;;;2.38;0.30;;;18.50;28.30;21.00;94808.00;;;;10340765;28;46204;-62
2022/03/14 13:31:33;;;;;;;1.00;0.20;;;18.50;28.50;21.00;94808.00;;;;10306297;28;46251;-62
2022/03/14 13:36:38;;;;;;;0.70;0.20;;;18.50;28.40;21.00;94792.00;;;;10339195;28;46518;-62
2022/03/14 13:41:41;;;;;;;1.35;0.30;;;18.50;28.40;21.00;94789.00;;;;10343141;28;45598;-62
2022/03/14 13:46:55;;;;;;;1.80;0.32;;;18.50;28.90;20.90;94796.00;;;;10342437;28;45434;-61
2022/03/14 13:52:00;;;;;;;0.57;0.30;;;18.50;28.50;20.90;94783.00;;;;10342906;28;46492;-61
2022/03/14 13:57:07;;;;;;;0.55;0.20;;;18.50;28.40;20.90;94776.00;;;;10309902;28;47316;-62
2022/03/14 14:02:14;;;;;;;;;;;18.50;28.20;20.90;94779.00;;;;10325774;28;47488;-62
2022/03/14 14:07:27;;;;;;;0.70;0.28;;;18.50;28.20;20.90;94782.00;;;;10310638;28;45298;-62
2022/03/14 14:12:31;;;;;;;0.98;0.30;;;18.50;28.30;21.00;94764.00;;;;10342200;28;46509;-62
2022/03/14 14:17:40;;;;;;;0.45;0.20;;;18.50;28.30;21.00;94769.00;;;;10308992;28;48082;-62
2022/03/14 14:22:45;;;;;;;2.47;0.30;;;18.50;28.40;21.10;94767.00;;;;10316650;28;46541;-69
2022/03/14 14:28:05;;;;;;;1.13;0.53;;;18.60;28.40;21.10;94755.00;;;;10332339;28;48166;-62
2022/03/14 14:33:31;;;;;;;0.20;0.20;;;18.60;28.20;21.10;94755.00;;;;10317853;28;45356;-63
2022/03/14 14:38:34;;;;;;;1.30;0.37;;;18.60;28.30;21.00;94753.00;;;;10315066;28;46796;-62
2022/03/14 14:43:36;;;;;;;1.63;0.30;;;18.60;28.30;21.10;94761.00;;;;10332200;28;47553;-68
2022/03/14 14:48:37;;;;;;;1.33;0.30;;;18.60;28.40;21.10;94744.00;;;;10349471;28;45568;-68
2022/03/14 14:53:40;;;;;;;1.67;0.35;;;18.60;28.30;21.10;94749.00;;;;10348077;28;45339;-61
2022/03/14 14:58:41;;;;;;;1.83;0.30;;;18.70;28.60;21.10;94741.00;;;;10330889;28;48205;-62
2022/03/14 15:03:41;;;;;;;1.75;0.30;;;18.70;28.20;21.00;94737.00;;;;10332477;28;45317;-61
2022/03/14 15:08:42;;;;;;;0.55;0.20;;;18.60;28.60;21.10;94730.00;;;;10297093;28;45190;-62
2022/03/14 15:13:42;;;;;;;2.75;0.30;;;18.60;28.60;21.10;94738.00;;;;10274723;28;46663;-61
2022/03/14 15:18:43;;;;;;;1.33;0.20;;;18.70;28.70;21.10;94754.00;;;;10274736;28;45215;-62
2022/03/14 15:23:44;;;;;;;0.63;0.30;;;18.70;28.60;21.20;94755.00;;;;10274837;28;45464;-62
2022/03/14 15:28:44;;;;;;;0.90;0.15;;;18.70;28.60;21.20;94760.00;;;;10272172;28;46268;-62
2022/03/14 15:33:45;;;;;;;1.77;0.38;;;18.70;28.70;21.20;94752.00;;;;10271776;28;46470;-60
2022/03/14 15:38:46;;;;;;;1.65;0.30;;;18.70;29.20;21.20;94767.00;;;;10271680;28;45333;-61
2022/03/14 15:43:47;;;;;;;1.27;0.30;;;18.70;28.80;21.20;94755.00;;;;10272074;28;46897;-62
2022/03/14 15:48:47;;;;;;;2.08;0.50;;;18.70;28.70;21.20;94739.00;;;;10296608;28;46610;-61
2022/03/14 15:53:49;;;;;;;0.75;0.30;;;18.70;28.70;21.20;94763.00;;;;10311479;28;47457;-62
2022/03/14 15:58:51;;;;;;;0.80;0.20;;;18.80;28.80;21.20;94747.00;;;;10326965;28;46918;-62
2022/03/14 16:03:52;;;;;;;2.40;0.22;;;18.70;28.80;21.20;94765.00;;;;10327086;28;46205;-62
2022/03/14 16:08:53;;;;;;;1.52;0.20;;;18.70;28.90;21.10;94760.00;;;;10305880;28;45462;-62
2022/03/14 16:13:54;;;;;;;0.73;0.30;;;18.70;28.40;21.00;94772.00;;;;10324459;28;45583;-63
2022/03/14 16:18:55;;;;;;;1.73;0.20;;;18.60;28.60;20.90;94775.00;;;;10310866;28;46306;-62
2022/03/14 16:23:56;;;;;;;1.00;0.35;;;18.50;28.60;20.90;94760.00;;;;10325945;28;46349;-62
2022/03/14 16:28:57;;;;;;;0.63;0.28;;;18.50;28.60;20.90;94760.00;;;;10312029;28;46823;-62
2022/03/14 16:33:58;;;;;;;1.25;0.40;;;18.40;28.50;20.90;94759.00;;;;10321444;28;45424;-63
2022/03/14 16:38:59;;;;;;;0.30;0.20;;;18.40;28.50;20.90;94758.00;;;;10323107;28;46755;-63
2022/03/14 16:44:01;;;;;;;1.10;0.28;;;18.40;28.50;20.90;94750.00;;;;10309656;28;45401;-62
2022/03/14 16:49:04;;;;;;;1.38;0.28;;;18.40;28.40;21.00;94764.00;;;;10324510;28;46532;-61
2022/03/14 16:54:04;;;;;;;0.93;0.43;;;18.50;28.60;21.00;94757.00;;;;10310259;28;47442;-62
2022/03/14 16:59:06;;;;;;;0.40;0.20;;;18.50;28.50;21.00;94768.00;;;;10323700;28;46323;-63
2022/03/14 17:04:07;;;;;;;1.17;0.30;;;18.50;28.50;21.10;94766.00;;;;10308299;28;48407;-62
2022/03/14 17:09:08;;;;;;;1.13;0.20;;;18.50;28.50;21.00;94755.00;;;;10325285;28;45979;-61
2022/03/14 17:14:11;;;;;;;1.60;0.45;;;18.50;28.50;21.00;94759.00;;;;10324526;28;45441;-61
2022/03/14 17:19:12;;;;;;;0.77;0.45;;;18.40;28.80;20.90;94755.00;;;;10307416;28;48065;-61
2022/03/14 17:24:12;;;;;;;1.33;0.63;;;18.30;28.80;20.90;94755.00;;;;10324413;28;45632;-62
2022/03/14 17:29:13;;;;;;;2.00;0.82;;;18.30;28.90;20.90;94756.00;;;;10325635;28;46473;-61
2022/03/14 17:34:13;;;;;;;3.95;0.82;;;18.30;28.90;20.90;94753.00;;;;10311578;28;45420;-67
2022/03/14 17:39:15;;;;;;;4.57;1.30;;;18.30;29.00;20.90;94761.00;;;;10329655;28;48258;-66
2022/03/14 17:44:16;;;;;;;2.72;1.10;;;18.40;29.10;21.00;94749.00;;;;10351923;28;45530;-66
2022/03/14 17:49:17;;;;;;;6.07;1.20;;;18.40;29.10;21.00;94754.00;;;;10366727;28;45516;-64
2022/03/14 17:54:18;;;;;;;3.63;0.93;;;18.40;29.10;21.00;94757.00;;;;10353028;28;45529;-60
2022/03/14 17:59:18;;;;;;;4.45;1.10;;;18.50;29.20;21.10;94776.00;;;;10350463;28;47028;-61
2022/03/14 18:04:20;;;;;;;3.45;1.20;;;18.50;29.60;21.20;94771.00;;;;10368912;28;46711;-62
2022/03/14 18:09:21;;;;;;;2.30;0.98;;;18.60;30.20;21.20;94761.00;;;;10379364;22;46092;-60
2022/03/14 18:14:21;;;;;;;2.60;1.05;;;18.70;29.70;21.30;94774.00;;;;10357300;28;48316;-61
2022/03/14 18:19:22;;;;;;;3.17;1.10;;;18.70;29.90;21.30;94780.00;;;;10373290;28;45307;-60
2022/03/14 18:24:23;;;;;;;3.38;0.93;;;18.80;29.90;21.30;94772.00;;;;10356195;28;46672;-66
2022/03/14 18:29:24;;;;;;;4.13;1.00;;;18.80;29.90;21.40;94777.00;;;;10374458;28;47184;-64
2022/03/14 18:34:33;;;;;;;3.28;1.05;;;18.90;30.10;21.40;94795.00;;;;10333630;28;47191;-64
2022/03/14 18:39:34;;;;;;;4.00;0.90;;;18.90;30.20;21.40;94791.00;;;;10316011;28;46907;-65
2022/03/14 18:44:36;;;;;;;2.65;0.82;;;18.90;30.50;21.40;94803.00;;;;10317184;28;45491;-61
2022/03/14 18:49:38;;;;;;;1.92;0.90;;;18.90;30.30;21.10;94800.00;;;;10315552;28;47016;-65
2022/03/14 18:54:39;;;;;;;2.80;1.10;;;18.60;29.50;21.10;94790.00;;;;10350257;28;48086;-62
2022/03/14 18:59:39;;;;;;;3.47;1.08;;;18.50;29.50;21.10;94804.00;;;;10380172;28;45682;-60
2022/03/14 19:04:40;;;;;;;2.67;1.17;;;18.50;29.60;21.10;94807.00;;;;10393932;28;46168;-61
2022/03/14 19:09:41;;;;;;;2.63;1.08;;;18.50;29.40;21.00;94810.00;;;;10411963;28;45270;-62
2022/03/14 19:14:42;;;;;;;2.88;1.40;;;18.50;29.40;21.10;94802.00;;;;10412851;28;46009;-63
2022/03/14 19:19:43;;;;;;;3.50;1.10;;;18.50;29.20;21.10;94796.00;;;;10395791;28;47432;-62
2022/03/14 19:24:43;;;;;;;2.45;1.10;;;18.50;29.40;21.10;94808.00;;;;10397373;28;45242;-62
2022/03/14 19:29:45;;;;;;;1.85;0.90;;;18.40;29.30;21.10;94810.00;;;;10396678;28;45520;-62
2022/03/14 19:34:46;;;;;;;2.60;1.00;;;18.50;29.30;21.10;94809.00;;;;10396877;28;45353;-62
2022/03/14 19:39:48;;;;;;;2.15;0.88;;;18.40;29.30;21.10;94813.00;;;;10412159;28;45193;-62
2022/03/14 19:44:51;;;;;;;2.40;1.00;;;18.40;29.30;21.10;94823.00;;;;10412093;28;45967;-62
2022/03/14 19:49:52;;;;;;;1.80;1.00;;;18.40;29.30;21.10;94812.00;;;;10411362;28;45339;-62
2022/03/14 19:54:54;;;;;;;2.05;0.85;;;18.40;29.20;21.00;94828.00;;;;10396286;28;46354;-62
2022/03/14 19:59:55;;;;;;;3.10;0.93;;;18.40;29.30;21.00;94827.00;;;;10336124;28;45278;-63
2022/03/14 20:04:56;;;;;;;2.10;0.90;;;18.40;29.20;21.00;94823.00;;;;10333129;28;45618;-62
2022/03/14 20:09:57;;;;;;;1.80;0.90;;;18.40;29.20;21.00;94817.00;;;;10347002;28;45233;-62
2022/03/14 20:14:58;;;;;;;2.47;1.08;;;18.40;29.20;21.00;94824.00;;;;10332675;28;47189;-62
2022/03/14 20:19:59;;;;;;;2.38;1.05;;;18.40;29.20;21.00;94819.00;;;;10312419;28;45293;-62
2022/03/14 20:24:59;;;;;;;1.70;0.90;;;18.40;29.20;21.00;94819.00;;;;10313878;28;45541;-62
2022/03/14 20:30:00;;;;;;;3.22;1.00;;;18.40;29.20;21.00;94819.00;;;;10312205;28;45241;-62
2022/03/14 20:35:02;;;;;;;2.63;1.00;;;18.30;29.20;21.00;94814.00;;;;10296052;28;47161;-62
2022/03/14 20:40:03;;;;;;;3.58;0.90;;;18.30;29.20;21.00;94813.00;;;;10313510;28;45549;-63
2022/03/14 20:45:05;;;;;;;2.78;1.05;;;18.30;29.20;21.00;94824.00;;;;10313050;28;46163;-62
2022/03/14 20:50:06;;;;;;;2.97;1.00;;;18.30;29.20;20.90;94822.00;;;;10333367;28;45527;-62
2022/03/14 20:55:07;;;;;;;1.00;0.68;;;18.30;29.20;21.00;94811.00;;;;10334075;28;45578;-63
2022/03/14 21:00:10;;;;;;;2.35;0.90;;;18.30;29.20;21.00;94808.00;;;;10322917;28;47163;-63
2022/03/14 21:05:11;;;;;;;2.85;1.02;;;18.30;29.20;21.00;94807.00;;;;10328333;28;45439;-62
2022/03/14 21:10:12;;;;;;;3.10;1.13;;;18.30;29.20;20.90;94797.00;;;;10338950;28;45447;-62
2022/03/14 21:15:16;;;;;;;3.55;1.30;;;18.30;29.20;20.90;94809.00;;;;10333905;28;45369;-62
2022/03/14 21:20:19;;;;;;;2.80;0.85;;;18.30;29.20;20.90;94791.00;;;;10384660;28;45310;-62
2022/03/14 21:25:22;;;;;;;2.85;1.10;;;18.30;29.20;20.90;94794.00;;;;10338001;28;47142;-63
2022/03/14 21:30:24;;;;;;;3.25;1.00;;;18.30;29.20;20.90;94787.00;;;;10353112;28;47001;-62
2022/03/14 21:35:25;;;;;;;2.53;0.90;;;18.20;29.10;20.90;94780.00;;;;10405670;28;47120;-62
2022/03/14 21:40:25;;;;;;;3.08;1.15;;;18.30;29.20;20.90;94781.00;;;;10423090;28;46731;-62
2022/03/14 21:45:27;;;;;;;2.30;0.98;;;18.20;29.10;20.80;94788.00;;;;10422176;28;45297;-62
2022/03/14 21:50:29;;;;;;;2.08;1.00;;;18.20;29.10;20.80;94799.00;;;;10422464;28;45302;-62
2022/03/14 21:55:32;;;;;;;1.65;0.70;;;18.20;29.10;20.80;94779.00;;;;10421795;28;45203;-63
2022/03/14 22:00:32;;;;;;;1.58;0.90;;;18.20;29.10;20.80;94796.00;;;;10367563;28;47462;-62
2022/03/14 22:05:33;;;;;;;3.28;0.82;;;18.10;29.10;20.80;94794.00;;;;10343538;28;45232;-62
2022/03/14 22:10:34;;;;;;;2.00;0.80;;;18.20;29.20;20.80;94802.00;;;;10342345;28;45474;-63